Time;durP1;ratioP1;P1;durP2;ratioP2;P2;SDS_P1;SDS_P2;PMS_P1;PMS_P2;Temp;Humidity;BMP_temperature;BMP_pressure;BME280_temperature;BME280_humidity;BME280_pressure;Samples;Min_cycle;Max_cycle;Signal;HPM_P1;HPM_P2
2023/10/02 15:39:59;;;;;;;7.50;3.90;;;691.30;1433.60;;;;;;4962079;28;20052;-80
2023/10/02 15:42:25;;;;;;;8.40;3.60;;;691.20;1433.60;;;;;;4959459;28;20613;-81
2023/10/02 15:44:51;;;;;;;7.78;3.55;;;691.20;1433.60;;;;;;4973115;28;20058;-78
2023/10/02 15:47:17;;;;;;;8.35;3.80;;;666.50;1459.20;;;;;;4973115;28;20081;-81
2023/10/02 15:49:45;;;;;;;7.32;3.83;;;666.50;1459.20;;;;;;4947567;28;20362;-80
2023/10/02 15:52:10;;;;;;;10.55;4.60;;;666.50;1459.20;;;;;;4957376;28;20042;-79
2023/10/02 15:54:43;;;;;;;7.80;4.57;;;666.20;1484.80;;;;;;4987977;28;20142;-79
2023/10/02 15:57:09;;;;;;;7.25;4.05;;;666.10;1484.80;;;;;;4973737;28;20030;-80
2023/10/02 15:59:35;;;;;;;9.00;4.25;;;;;;;;;;4956943;28;20050;-80
2023/10/02 16:02:00;;;;;;;10.70;4.68;;;666.10;1536.00;;;;;;4972005;28;20034;-81
2023/10/02 16:04:26;;;;;;;8.30;4.30;;;665.90;1536.00;;;;;;4964259;28;20035;-81
2023/10/02 16:06:52;;;;;;;10.82;5.65;;;665.70;1561.60;;;;;;4941155;28;20030;-79
2023/10/02 16:09:21;;;;;;;11.20;5.70;;;665.70;1561.60;;;;;;4954484;28;20481;-81
2023/10/02 16:11:47;;;;;;;9.25;5.13;;;665.80;1561.60;;;;;;4955162;29;20119;-81
2023/10/02 16:14:12;;;;;;;10.05;4.93;;;665.90;1561.60;;;;;;4947799;28;20089;-80
2023/10/02 16:16:38;;;;;;;9.15;5.22;;;665.80;1561.60;;;;;;4974794;28;20022;-79
2023/10/02 16:19:08;;;;;;;12.77;5.40;;;665.80;1561.60;;;;;;4974502;28;20077;-80
2023/10/02 16:21:34;;;;;;;12.57;6.00;;;665.90;1587.20;;;;;;4972163;28;20031;-79
2023/10/02 16:24:01;;;;;;;14.25;5.25;;;640.70;1587.20;;;;;;4964700;28;20045;-80
2023/10/02 16:26:28;;;;;;;12.88;5.40;;;665.90;1587.20;;;;;;4946278;29;20082;-81
2023/10/02 16:28:54;;;;;;;11.85;4.70;;;665.80;1612.80;;;;;;4971282;28;20081;-81
2023/10/02 16:31:28;;;;;;;13.05;6.65;;;665.70;1612.80;;;;;;4974071;28;20423;-81
2023/10/02 16:33:54;;;;;;;15.82;9.18;;;640.90;1612.80;;;;;;4987274;28;20027;-80
2023/10/02 16:36:25;;;;;;;16.23;8.23;;;640.60;1612.80;;;;;;4981992;28;20488;-79
2023/10/02 16:38:52;;;;;;;11.90;6.13;;;640.30;1638.40;;;;;;4972837;28;20602;-80
2023/10/02 16:41:18;;;;;;;14.13;6.22;;;640.30;1612.80;;;;;;4954406;28;20047;-81
2023/10/02 16:43:45;;;;;;;13.38;6.80;;;640.20;1638.40;;;;;;4948740;28;20110;-81
2023/10/02 16:46:16;;;;;;;14.25;7.63;;;640.10;1664.00;;;;;;4950066;28;20101;-79
2023/10/02 16:48:42;;;;;;;17.10;8.88;;;640.00;1664.00;;;;;;4962148;28;20035;-78
2023/10/02 16:51:12;;;;;;;17.35;8.85;;;615.30;1715.20;;;;;;4952860;28;20642;-78
2023/10/02 16:53:40;;;;;;;15.27;7.78;;;615.00;1740.80;;;;;;4971184;28;20043;-80
2023/10/02 16:56:06;;;;;;;14.18;7.90;;;614.70;1740.80;;;;;;4960382;28;20065;-83
2023/10/02 16:58:32;;;;;;;14.02;7.60;;;614.50;1766.40;;;;;;4970629;28;20380;-82
2023/10/02 17:00:59;;;;;;;15.20;7.57;;;614.50;1792.00;;;;;;4973782;28;20030;-81
2023/10/02 17:03:25;;;;;;;16.88;8.05;;;614.60;1792.00;;;;;;4974738;28;20171;-84
2023/10/02 17:05:51;;;;;;;11.48;6.13;;;614.60;1766.40;;;;;;4973260;28;20054;-82
2023/10/02 17:08:17;;;;;;;13.60;6.15;;;614.60;1792.00;;;;;;4993525;28;20627;-84
2023/10/02 17:10:42;;;;;;;14.25;6.65;;;614.50;1792.00;;;;;;4973678;28;20035;-80
2023/10/02 17:13:09;;;;;;;12.77;6.22;;;614.50;1817.60;;;;;;4948057;28;20036;-84
2023/10/02 17:15:35;;;;;;;13.27;6.97;;;614.40;1817.60;;;;;;4973978;28;20488;-85
2023/10/02 17:18:01;;;;;;;16.75;6.88;;;589.70;1843.20;;;;;;4969393;28;20042;-82
2023/10/02 17:20:28;;;;;;;27.17;13.27;;;589.70;1843.20;;;;;;4973765;28;20109;-82
2023/10/02 17:22:54;;;;;;;20.02;9.00;;;589.60;1843.20;;;;;;4955152;28;20035;-85
2023/10/02 17:25:24;;;;;;;13.57;7.78;;;589.60;1868.80;;;;;;4973906;28;20045;-83
2023/10/02 17:27:52;;;;;;;14.57;6.90;;;589.30;1920.00;;;;;;4974471;28;20041;-83
2023/10/02 17:30:23;;;;;;;15.45;7.38;;;589.00;1945.60;;;;;;4937932;29;20125;-81
2023/10/02 17:32:49;;;;;;;18.10;8.70;;;588.90;1971.20;;;;;;4954430;29;20035;-81
2023/10/02 17:35:16;;;;;;;13.63;7.22;;;563.80;2022.40;;;;;;4940335;28;20574;-80
2023/10/02 17:38:11;;;;;;;18.02;9.68;;;563.40;2073.60;;;;;;4962549;28;20034;-89
2023/10/02 17:40:37;;;;;;;17.65;9.27;;;538.40;2176.00;;;;;;4941801;29;20039;-83
2023/10/02 17:43:03;;;;;;;12.70;6.50;;;538.30;2278.40;;;;;;4951462;28;20034;-78
2023/10/02 17:45:28;;;;;;;13.25;6.00;;;538.10;2355.20;;;;;;4954117;28;20766;-86
2023/10/02 17:47:54;;;;;;;10.23;5.40;;;538.00;2406.40;;;;;;4950852;28;20033;-87
2023/10/02 17:50:21;;;;;;;20.60;6.18;;;538.20;2406.40;;;;;;4969055;28;20316;-87
2023/10/02 17:52:47;;;;;;;9.80;4.95;;;538.20;2406.40;;;;;;4948038;28;20055;-80
2023/10/02 17:55:13;;;;;;;10.13;4.88;;;538.10;2406.40;;;;;;4940372;28;20043;-86
2023/10/02 17:57:39;;;;;;;13.77;4.85;;;538.20;2406.40;;;;;;4952579;28;20031;-81
2023/10/02 18:00:13;;;;;;;13.38;5.18;;;537.90;2406.40;;;;;;4959724;28;20947;-78
2023/10/02 18:02:43;;;;;;;12.73;5.35;;;537.60;2406.40;;;;;;4918961;29;20040;-82
2023/10/02 18:05:10;;;;;;;11.10;5.07;;;512.90;2380.80;;;;;;4944011;28;20117;-79
2023/10/02 18:07:37;;;;;;;10.77;4.93;;;512.80;2380.80;;;;;;4970660;28;20027;-81
2023/10/02 18:10:04;;;;;;;10.38;5.13;;;512.70;2380.80;;;;;;4971137;28;20054;-78
2023/10/02 18:12:29;;;;;;;10.25;4.60;;;537.60;2406.40;;;;;;4971551;28;20117;-81
2023/10/02 18:14:55;;;;;;;9.27;4.78;;;512.80;2380.80;;;;;;4951490;28;20110;-79
2023/10/02 18:17:21;;;;;;;8.75;4.22;;;512.70;2380.80;;;;;;4953074;28;20122;-78
2023/10/02 18:19:47;;;;;;;11.23;5.10;;;512.70;2380.80;;;;;;4954163;29;20098;-79
2023/10/02 18:22:13;;;;;;;10.18;4.80;;;512.70;2380.80;;;;;;4951436;28;20035;-83
2023/10/02 18:24:40;;;;;;;12.98;4.70;;;512.80;2380.80;;;;;;4953146;28;20024;-80
2023/10/02 18:27:06;;;;;;;10.82;4.50;;;512.90;2380.80;;;;;;4945184;28;20066;-78
2023/10/02 18:29:32;;;;;;;9.07;4.47;;;512.90;2380.80;;;;;;4936761;29;20515;-86
2023/10/02 18:31:58;;;;;;;11.10;5.03;;;512.70;2380.80;;;;;;4931395;29;20036;-89
2023/10/02 18:34:24;;;;;;;11.57;4.63;;;512.60;2380.80;;;;;;4955027;28;20023;-88
2023/10/02 18:37:22;;;;;;;12.57;4.63;;;512.60;2380.80;;;;;;4953331;28;20027;-84
2023/10/02 18:39:48;;;;;;;12.15;5.18;;;512.70;2380.80;;;;;;4956239;28;20062;-87
2023/10/02 18:42:16;;;;;;;11.27;4.60;;;512.60;2380.80;;;;;;4974839;28;20042;-88
2023/10/02 18:44:44;;;;;;;10.77;4.72;;;512.70;2380.80;;;;;;4957207;28;20118;-91
2023/10/02 18:47:20;;;;;;;12.55;6.53;;;512.80;2380.80;;;;;;4953786;28;20059;-80
2023/10/02 18:49:49;;;;;;;10.55;4.43;;;512.70;2380.80;;;;;;4968372;28;20096;-78
2023/10/02 18:52:16;;;;;;;11.88;4.20;;;512.00;2380.80;;;;;;4973434;28;20039;-85
2023/10/02 18:54:42;;;;;;;8.45;4.30;;;487.00;2380.80;;;;;;4972956;28;20052;-88
2023/10/02 18:57:08;;;;;;;10.43;4.75;;;487.10;2380.80;;;;;;4974788;28;20125;-88
2023/10/02 18:59:34;;;;;;;10.05;4.68;;;486.90;2380.80;;;;;;4976198;28;20388;-86
2023/10/02 19:02:00;;;;;;;8.02;4.35;;;486.80;2380.80;;;;;;4973415;28;20476;-86
2023/10/02 19:04:26;;;;;;;11.10;4.80;;;486.90;2380.80;;;;;;4956468;28;20126;-88
2023/10/02 19:07:57;;;;;;;11.27;4.72;;;486.90;2380.80;;;;;;4973169;28;20047;-91
2023/10/02 19:10:23;;;;;;;10.02;4.93;;;486.80;2380.80;;;;;;4968095;28;20066;-90
2023/10/02 19:12:50;;;;;;;10.65;5.30;;;486.70;2380.80;;;;;;4970817;28;20118;-88
2023/10/02 19:15:16;;;;;;;13.00;5.43;;;486.60;2380.80;;;;;;4973674;28;20023;-90
2023/10/02 19:17:43;;;;;;;9.88;5.15;;;486.50;2380.80;;;;;;4962697;28;20070;-91
2023/10/02 19:20:13;;;;;;;19.20;6.40;;;486.40;2380.80;;;;;;4974548;28;20106;-92
2023/10/02 19:23:15;;;;;;;11.20;4.95;;;486.40;2380.80;;;;;;4977288;28;20042;-88
2023/10/02 19:25:45;;;;;;;11.27;4.70;;;461.70;2380.80;;;;;;4961046;28;20424;-80
2023/10/02 19:28:11;;;;;;;12.60;4.57;;;461.70;2380.80;;;;;;4977722;28;20476;-89
2023/10/02 19:30:39;;;;;;;8.55;4.05;;;461.70;2380.80;;;;;;4976944;28;20041;-92
2023/10/02 19:33:08;;;;;;;10.45;4.13;;;461.70;2380.80;;;;;;4967827;28;20031;-92
2023/10/02 19:35:34;;;;;;;8.45;4.03;;;461.70;2380.80;;;;;;4977911;28;20522;-88
2023/10/02 19:38:00;;;;;;;11.98;4.43;;;461.60;2380.80;;;;;;4975524;28;20031;-91
2023/10/02 19:40:26;;;;;;;13.20;5.10;;;461.50;2380.80;;;;;;4974508;28;20113;-89
2023/10/02 19:42:52;;;;;;;12.55;4.40;;;461.60;2380.80;;;;;;4975261;28;20177;-92
2023/10/02 19:45:18;;;;;;;12.57;4.50;;;461.60;2380.80;;;;;;4958611;28;20274;-90
2023/10/02 19:47:43;;;;;;;9.30;3.83;;;461.60;2380.80;;;;;;4974757;28;20030;-92
2023/10/02 19:50:09;;;;;;;9.57;4.28;;;461.60;2380.80;;;;;;4974887;28;20392;-92
2023/10/02 19:56:00;;;;;;;11.02;3.95;;;461.60;2380.80;;;;;;4972652;28;20025;-78
2023/10/02 19:58:26;;;;;;;15.50;4.57;;;461.50;2380.80;;;;;;4957827;28;20038;-90
2023/10/02 20:00:52;;;;;;;12.82;4.57;;;461.30;2380.80;;;;;;4974418;28;20058;-94
2023/10/02 20:03:19;;;;;;;10.02;4.80;;;461.20;2380.80;;;;;;4958518;28;20392;-92
2023/10/02 20:05:45;;;;;;;9.95;4.88;;;461.10;2380.80;;;;;;4957376;28;20041;-91
2023/10/02 20:08:12;;;;;;;13.38;5.03;;;461.10;2380.80;;;;;;4973860;28;20041;-90
2023/10/02 20:10:39;;;;;;;12.30;5.22;;;460.80;2380.80;;;;;;4974214;28;20031;-91
2023/10/02 20:13:10;;;;;;;13.93;5.57;;;436.00;2355.20;;;;;;4968913;28;20072;-91
2023/10/02 20:15:37;;;;;;;13.48;5.55;;;436.00;2355.20;;;;;;4973837;28;20049;-90
2023/10/02 20:18:03;;;;;;;13.98;5.93;;;436.00;2355.20;;;;;;4956827;28;20068;-91
2023/10/02 20:20:29;;;;;;;12.48;5.72;;;436.00;2355.20;;;;;;4941110;29;20042;-92
2023/10/02 20:23:51;;;;;;;10.73;5.80;;;435.90;2355.20;;;;;;4956555;28;20023;-92
2023/10/02 20:26:17;;;;;;;12.05;5.53;;;435.90;2355.20;;;;;;4968702;28;20038;-87
2023/10/02 20:28:43;;;;;;;13.98;5.40;;;435.60;2355.20;;;;;;4956620;28;20041;-92
2023/10/02 20:31:13;;;;;;;10.55;4.80;;;435.50;2355.20;;;;;;4962349;28;20045;-92
2023/10/02 20:33:41;;;;;;;12.65;4.95;;;435.70;2355.20;;;;;;4981210;28;20137;-92
2023/10/02 20:36:07;;;;;;;12.20;5.28;;;435.70;2355.20;;;;;;4974153;28;20074;-92
2023/10/02 20:38:34;;;;;;;10.98;4.80;;;435.80;2355.20;;;;;;4970312;28;20030;-83
2023/10/02 20:41:00;;;;;;;12.88;4.95;;;435.80;2355.20;;;;;;4972259;28;20040;-78
2023/10/02 20:43:26;;;;;;;12.13;5.57;;;436.00;2355.20;;;;;;4971874;28;20023;-90
2023/10/02 20:45:52;;;;;;;12.85;5.40;;;435.70;2355.20;;;;;;4943092;28;20049;-78
2023/10/02 20:48:18;;;;;;;13.68;6.00;;;435.60;2355.20;;;;;;4969556;28;20436;-82
2023/10/02 20:50:47;;;;;;;12.68;5.43;;;435.50;2355.20;;;;;;4975056;28;20039;-83
2023/10/02 20:53:13;;;;;;;16.55;5.88;;;435.50;2355.20;;;;;;4955880;28;20096;-86
2023/10/02 20:55:39;;;;;;;14.20;5.38;;;435.70;2355.20;;;;;;4971764;28;20034;-81
2023/10/02 20:58:05;;;;;;;13.32;4.95;;;435.60;2355.20;;;;;;4954121;29;20122;-83
2023/10/02 21:00:32;;;;;;;10.45;4.85;;;435.70;2355.20;;;;;;4969005;28;20074;-79
2023/10/02 21:03:01;;;;;;;14.05;5.03;;;435.80;2355.20;;;;;;4955329;28;20026;-82
2023/10/02 21:05:27;;;;;;;12.85;4.88;;;435.80;2355.20;;;;;;4972493;28;20090;-92
2023/10/02 21:07:53;;;;;;;13.50;4.80;;;435.70;2355.20;;;;;;4973980;28;20023;-89
2023/10/02 21:10:19;;;;;;;13.52;4.35;;;435.60;2355.20;;;;;;4969661;28;20038;-78
2023/10/02 21:12:46;;;;;;;11.18;4.68;;;435.60;2355.20;;;;;;4952791;28;20046;-80
2023/10/02 21:15:13;;;;;;;13.88;4.75;;;435.60;2355.20;;;;;;4970682;28;20038;-82
2023/10/02 21:17:40;;;;;;;11.68;4.80;;;435.50;2355.20;;;;;;4969863;28;20035;-83
2023/10/02 21:20:14;;;;;;;11.95;5.20;;;435.50;2355.20;;;;;;4954877;28;20118;-92
2023/10/02 21:22:45;;;;;;;;;;;435.50;2355.20;;;;;;4972819;28;20027;-84
2023/10/02 21:25:15;;;;;;;13.60;4.78;;;435.40;2355.20;;;;;;4955149;28;20053;-82
2023/10/02 21:27:41;;;;;;;15.68;4.70;;;435.40;2355.20;;;;;;4971741;28;20026;-79
2023/10/02 21:30:11;;;;;;;11.00;4.65;;;435.40;2355.20;;;;;;4965513;28;20050;-80
2023/10/02 21:32:41;;;;;;;11.30;4.65;;;435.50;2355.20;;;;;;4970041;28;20030;-88
2023/10/02 21:35:11;;;;;;;13.32;4.97;;;435.50;2355.20;;;;;;4970872;28;20066;-78
2023/10/02 21:37:37;;;;;;;11.52;4.88;;;435.60;2355.20;;;;;;4971570;28;20145;-79
2023/10/02 21:40:06;;;;;;;16.83;6.13;;;435.70;2355.20;;;;;;4965391;28;20178;-81
2023/10/02 21:42:33;;;;;;;10.50;4.82;;;435.60;2355.20;;;;;;4971758;28;20487;-88
2023/10/02 21:44:59;;;;;;;11.80;4.82;;;435.50;2355.20;;;;;;4968265;28;20468;-82
2023/10/02 21:47:25;;;;;;;9.85;4.40;;;435.50;2355.20;;;;;;4974041;28;20049;-83
2023/10/02 21:49:51;;;;;;;11.68;4.90;;;435.40;2355.20;;;;;;4973227;28;20031;-92
2023/10/02 21:55:53;;;;;;;13.05;4.70;;;435.40;2355.20;;;;;;4973560;28;20034;-84
2023/10/02 21:58:19;;;;;;;11.77;4.63;;;435.50;2355.20;;;;;;4973022;28;20027;-87
2023/10/02 22:00:48;;;;;;;11.45;5.15;;;410.50;2355.20;;;;;;4971907;28;20532;-81
2023/10/02 22:03:15;;;;;;;12.77;5.53;;;410.40;2355.20;;;;;;4967465;28;20436;-79
2023/10/02 22:05:46;;;;;;;11.95;4.78;;;410.50;2355.20;;;;;;4973113;28;20039;-80
2023/10/02 22:08:12;;;;;;;15.02;4.90;;;410.30;2355.20;;;;;;4971260;28;20039;-82
2023/10/02 22:10:42;;;;;;;12.95;5.18;;;410.20;2355.20;;;;;;4955835;28;20046;-82
2023/10/02 22:13:09;;;;;;;13.40;5.35;;;;;;;;;;4972688;28;20027;-83
2023/10/02 22:15:35;;;;;;;11.60;4.50;;;410.30;2355.20;;;;;;4972942;28;20110;-85
2023/10/02 22:18:07;;;;;;;14.02;4.78;;;410.00;2355.20;;;;;;4972849;28;20396;-80
2023/10/02 22:20:37;;;;;;;13.63;5.57;;;409.90;2355.20;;;;;;4966325;28;20117;-82
2023/10/02 22:23:03;;;;;;;9.10;4.88;;;409.70;2355.20;;;;;;4954610;28;20110;-78
2023/10/02 22:25:30;;;;;;;14.05;5.68;;;409.60;2355.20;;;;;;4970337;28;20189;-92
2023/10/02 22:27:57;;;;;;;14.77;5.10;;;409.60;2355.20;;;;;;4972566;28;20023;-81
2023/10/02 22:30:23;;;;;;;12.02;4.82;;;384.90;2329.60;;;;;;4955661;28;20140;-77
2023/10/02 22:32:50;;;;;;;13.82;5.38;;;409.60;2355.20;;;;;;4973359;28;20476;-78
2023/10/02 22:35:18;;;;;;;13.75;5.88;;;384.70;2329.60;;;;;;4979404;28;20023;-78
2023/10/02 22:37:44;;;;;;;13.23;5.45;;;384.70;2329.60;;;;;;4978352;28;20057;-80
2023/10/02 22:40:19;;;;;;;14.02;5.15;;;384.60;2329.60;;;;;;4973933;28;20035;-78
2023/10/02 22:42:47;;;;;;;;;;;384.70;2329.60;;;;;;4975099;28;20035;-80
2023/10/02 22:45:13;;;;;;;16.77;5.80;;;384.60;2329.60;;;;;;4972795;28;20026;-83
2023/10/02 22:47:42;;;;;;;12.20;5.50;;;384.50;2329.60;;;;;;4978604;28;20022;-76
2023/10/02 22:50:11;;;;;;;14.82;5.85;;;384.50;2329.60;;;;;;4971212;28;20027;-77
2023/10/02 22:52:36;;;;;;;11.27;5.50;;;384.50;2329.60;;;;;;4978045;28;20043;-76
2023/10/02 22:55:05;;;;;;;13.52;6.07;;;384.50;2329.60;;;;;;4976758;28;20025;-78
2023/10/02 22:57:31;;;;;;;15.07;5.90;;;384.50;2329.60;;;;;;4985090;28;20027;-78
2023/10/02 22:59:56;;;;;;;11.18;5.68;;;384.50;2329.60;;;;;;4981751;28;20085;-79
2023/10/02 23:02:22;;;;;;;12.35;5.40;;;384.60;2329.60;;;;;;4960298;28;20030;-78
2023/10/02 23:04:48;;;;;;;14.23;5.70;;;384.50;2329.60;;;;;;4976650;28;20432;-78
2023/10/02 23:07:52;;;;;;;12.73;6.13;;;384.50;2329.60;;;;;;4976048;28;20039;-84
2023/10/02 23:10:18;;;;;;;;;;;384.50;2329.60;;;;;;4963737;28;20074;-77
2023/10/02 23:12:50;;;;;;;11.82;5.90;;;384.00;2329.60;;;;;;4956997;28;19914;-82
2023/10/02 23:15:18;;;;;;;14.30;6.07;;;384.40;2329.60;;;;;;4963479;28;20031;-78
2023/10/02 23:17:45;;;;;;;12.10;5.95;;;384.40;2329.60;;;;;;4955403;29;20038;-82
2023/10/02 23:20:13;;;;;;;10.70;5.63;;;384.40;2329.60;;;;;;4979841;28;20050;-77
2023/10/02 23:22:48;;;;;;;15.73;6.20;;;384.30;2329.60;;;;;;4977424;28;20023;-77
2023/10/02 23:25:19;;;;;;;15.30;5.80;;;384.30;2329.60;;;;;;4980621;28;20085;-76
2023/10/02 23:27:46;;;;;;;13.18;5.80;;;384.30;2329.60;;;;;;4982790;28;20034;-77
2023/10/02 23:30:20;;;;;;;15.30;5.78;;;384.30;2329.60;;;;;;4981950;28;20023;-77
2023/10/02 23:32:56;;;;;;;13.38;6.25;;;384.20;2329.60;;;;;;4960652;28;20069;-77
2023/10/02 23:35:23;;;;;;;14.88;6.07;;;384.20;2329.60;;;;;;4978649;28;20105;-77
2023/10/02 23:37:55;;;;;;;15.95;6.18;;;384.10;2329.60;;;;;;4980884;28;20022;-77
2023/10/02 23:40:21;;;;;;;13.18;6.55;;;384.10;2329.60;;;;;;4970265;28;20114;-78
2023/10/02 23:42:52;;;;;;;14.98;6.60;;;384.10;2329.60;;;;;;4952509;28;20068;-77
2023/10/02 23:45:22;;;;;;;17.23;6.85;;;384.10;2329.60;;;;;;4979700;28;20023;-77
2023/10/02 23:47:50;;;;;;;12.75;6.28;;;384.10;2329.60;;;;;;4979243;28;20105;-78
2023/10/02 23:50:17;;;;;;;11.90;6.40;;;384.00;2329.60;;;;;;4981021;28;20022;-77
2023/10/02 23:52:47;;;;;;;12.63;6.18;;;359.30;2329.60;;;;;;4970196;28;20027;-79
2023/10/02 23:55:23;;;;;;;16.45;7.15;;;384.00;2329.60;;;;;;4982202;28;20073;-78
2023/10/02 23:57:52;;;;;;;14.77;6.60;;;358.90;2329.60;;;;;;4977625;28;20031;-78
